Terminal Aerodrome Forecast
Issued by NWS

Current Version | Previous Version | Graphics & Text | Print | Product List | Glossary On
Versions: 1 2 3 4 5 6 7 8 9 10 11 12 13 14 15 16 17 18 19 20 21 22 23
000
FTUS41 KPBZ 301720
TAFMGW
TAF
KMGW 301720Z 3018/0118 17004KT P6SM OVC090
     FM302000 12005KT 6SM -RA BKN035 OVC080
     FM010000 12005KT 3SM -RA BR OVC020
     FM010500 14007KT 4SM -RA OVC012
     FM011300 20006KT P6SM -SHRA OVC020
     FM011500 23007KT P6SM VCSH BKN035=

USA.gov is the U.S. government's official web portal to all federal, state and local government web resources and services.